Colburn, Indiana
Current Conditions -  °F | °C
As of 10:54 PM on Wednesday 17 Dec 2014 (Local Time) from KLAF Reporting Station
Overcast Overcast  
Wind Chill: 17°   Ceiling: 2200
Heat Index: 25°   Visibility: 10mi
Dew Point: 18°   Wind: 7mph
Humidity: 75%   Direction: 300°WNW
Pressure: 30.29"   Gusts: NA
Location:  40.4565°N, 86.7657°W
Report Text: KLAF 180354Z AUTO 30006KT 10SM OVC022 M04/M08 A3029 RMK AO2 SLP263 T10391078 TSNO
Loading
Personal Weather Stations






























Interactive Weather Map New forecast layout! Learn more

10-Day Weather Forecast

Advertisements
Track Severe Weather on mobile